createdAt,value
2019-01-24T00:00:33.056Z,81.00
2019-01-24T00:03:01.318Z,80.00
2019-01-24T00:05:29.182Z,78.60
2019-01-24T00:07:57.051Z,78.70
2019-01-24T00:10:24.742Z,78.80
2019-01-24T00:12:52.656Z,78.40
2019-01-24T00:15:20.319Z,78.20
2019-01-24T00:17:47.794Z,78.90
2019-01-24T00:20:15.407Z,80.30
2019-01-24T00:22:43.119Z,79.80
2019-01-24T00:25:10.595Z,78.80
2019-01-24T00:27:38.507Z,79.00
2019-01-24T00:30:10.603Z,79.30
2019-01-24T00:32:38.470Z,78.50
2019-01-24T00:35:06.474Z,77.80
2019-01-24T00:37:33.929Z,78.10
2019-01-24T00:40:01.257Z,77.80
2019-01-24T00:42:28.688Z,78.20
2019-01-24T00:44:56.579Z,77.90
2019-01-24T00:47:24.362Z,78.10
2019-01-24T00:49:51.767Z,78.50
2019-01-24T00:52:19.130Z,78.30
2019-01-24T00:54:46.918Z,78.70
2019-01-24T00:57:14.546Z,78.30
2019-01-24T00:59:42.331Z,78.40
2019-01-24T01:02:10.322Z,78.80
2019-01-24T01:04:40.025Z,78.70
2019-01-24T01:07:08.350Z,79.00
2019-01-24T01:09:35.604Z,79.30
2019-01-24T01:12:04.706Z,78.80
2019-01-24T01:14:32.172Z,78.80
2019-01-24T01:17:00.421Z,79.30
2019-01-24T01:19:27.961Z,79.50
2019-01-24T01:21:55.296Z,79.50
2019-01-24T01:24:22.648Z,79.30
2019-01-24T01:26:50.155Z,79.50
2019-01-24T01:29:17.942Z,79.10
2019-01-24T01:31:45.288Z,79.40
2019-01-24T01:34:12.753Z,79.40
2019-01-24T01:36:40.615Z,79.70
2019-01-24T01:39:08.354Z,79.80
2019-01-24T01:41:36.382Z,80.40
2019-01-24T01:44:04.437Z,80.10
2019-01-24T01:46:31.939Z,79.40
2019-01-24T01:48:59.389Z,78.90
2019-01-24T01:51:27.056Z,79.00
2019-01-24T01:53:54.582Z,79.00
2019-01-24T01:56:22.167Z,78.00
2019-01-24T01:58:50.426Z,78.50
2019-01-24T02:01:18.282Z,78.90
2019-01-24T02:03:45.855Z,78.50
2019-01-24T02:06:13.710Z,78.60
2019-01-24T02:08:41.140Z,78.70
2019-01-24T02:11:08.437Z,79.00
2019-01-24T02:13:36.287Z,79.20
2019-01-24T02:16:03.808Z,79.30
2019-01-24T02:18:31.322Z,79.30
2019-01-24T02:20:59.168Z,78.80
2019-01-24T02:23:26.687Z,78.70
2019-01-24T02:25:54.180Z,79.00
2019-01-24T02:28:21.947Z,79.70
2019-01-24T02:30:49.720Z,78.60
2019-01-24T02:33:18.899Z,78.90
2019-01-24T02:35:46.557Z,79.00
2019-01-24T02:38:13.891Z,78.90
2019-01-24T02:40:41.145Z,78.50
2019-01-24T02:43:08.583Z,78.90
2019-01-24T02:45:36.266Z,78.50
2019-01-24T02:48:04.323Z,78.20
2019-01-24T02:50:32.132Z,78.60
2019-01-24T02:53:00.019Z,78.30
2019-01-24T02:55:27.371Z,79.10
2019-01-24T02:57:54.872Z,78.10
2019-01-24T03:00:22.567Z,78.20
2019-01-24T03:02:50.352Z,79.20
2019-01-24T03:05:19.699Z,78.00
2019-01-24T03:07:47.123Z,78.00
2019-01-24T03:10:14.601Z,78.10
2019-01-24T03:12:42.597Z,78.40
2019-01-24T03:15:11.647Z,78.90
2019-01-24T03:17:39.378Z,78.40
2019-01-24T03:20:08.011Z,78.20
2019-01-24T03:22:35.376Z,78.20
2019-01-24T03:25:04.482Z,78.00
2019-01-24T03:27:31.945Z,78.40
2019-01-24T03:29:59.492Z,78.80
2019-01-24T03:32:27.110Z,78.70
2019-01-24T03:34:54.726Z,78.70
2019-01-24T03:37:22.136Z,78.60
2019-01-24T03:39:50.135Z,78.90
2019-01-24T03:42:18.019Z,78.50
2019-01-24T03:44:45.774Z,78.30
2019-01-24T03:47:14.191Z,78.20
2019-01-24T03:49:41.755Z,78.80
2019-01-24T03:52:09.385Z,78.30
2019-01-24T03:54:36.836Z,78.70
2019-01-24T03:57:04.435Z,79.20
2019-01-24T03:59:31.856Z,79.10
2019-01-24T04:01:59.439Z,79.40
2019-01-24T04:04:27.113Z,78.70
2019-01-24T04:06:54.771Z,77.50
2019-01-24T04:09:22.406Z,77.30
2019-01-24T04:11:49.925Z,77.50
2019-01-24T04:14:17.756Z,77.80
2019-01-24T04:16:45.396Z,76.90
2019-01-24T04:19:12.981Z,77.30
2019-01-24T04:21:40.614Z,77.70
2019-01-24T04:24:08.727Z,78.00
2019-01-24T04:26:40.756Z,78.00
2019-01-24T04:29:08.327Z,77.70
2019-01-24T04:31:36.186Z,78.00
2019-01-24T04:34:03.897Z,77.90
2019-01-24T04:36:31.932Z,78.00
2019-01-24T04:39:01.582Z,77.90
2019-01-24T04:41:29.155Z,78.00
2019-01-24T04:43:56.675Z,78.00
2019-01-24T04:46:27.497Z,78.60
2019-01-24T04:48:55.093Z,78.10
2019-01-24T04:51:23.269Z,78.40
2019-01-24T04:53:50.902Z,78.30
2019-01-24T04:56:19.475Z,79.10
2019-01-24T04:58:47.100Z,77.90
2019-01-24T05:01:15.020Z,77.90
2019-01-24T05:03:43.008Z,77.70
2019-01-24T05:06:10.977Z,77.60
2019-01-24T05:08:39.016Z,78.10
2019-01-24T05:11:06.934Z,77.90
2019-01-24T05:13:34.824Z,78.10
2019-01-24T05:16:02.817Z,77.90
2019-01-24T05:18:30.483Z,77.60
2019-01-24T05:20:58.378Z,77.80
2019-01-24T05:23:26.111Z,78.30
2019-01-24T05:25:54.063Z,78.60
2019-01-24T05:28:22.367Z,78.30
2019-01-24T05:30:50.243Z,78.00
2019-01-24T05:33:18.406Z,77.90
2019-01-24T05:35:46.057Z,77.60
2019-01-24T05:38:13.803Z,78.00
2019-01-24T05:40:41.832Z,78.10
2019-01-24T05:43:09.696Z,78.30
2019-01-24T05:45:38.169Z,78.30
2019-01-24T05:48:06.187Z,77.90
2019-01-24T05:50:34.142Z,77.80
2019-01-24T05:53:01.955Z,78.20
2019-01-24T05:55:29.398Z,78.60
2019-01-24T05:57:57.161Z,78.70
2019-01-24T06:00:35.990Z,78.70
2019-01-24T06:03:04.057Z,78.70
2019-01-24T06:05:31.544Z,78.50
2019-01-24T06:08:00.637Z,78.20
2019-01-24T06:10:28.426Z,77.80
2019-01-24T06:12:56.427Z,77.80
2019-01-24T06:15:25.908Z,77.80
2019-01-24T06:17:53.602Z,78.20
2019-01-24T06:20:21.465Z,78.00
2019-01-24T06:22:49.638Z,77.50
2019-01-24T06:25:17.315Z,77.40
2019-01-24T06:27:45.487Z,77.30
2019-01-24T06:30:16.387Z,77.80
2019-01-24T06:32:45.214Z,77.80
2019-01-24T06:35:12.727Z,77.50
2019-01-24T06:37:40.760Z,77.60
2019-01-24T06:40:09.305Z,77.80
2019-01-24T06:42:37.369Z,78.00
2019-01-24T06:45:07.093Z,78.00
2019-01-24T06:47:34.976Z,78.00
2019-01-24T06:50:03.262Z,78.40
2019-01-24T06:52:31.084Z,78.10
2019-01-24T06:54:58.928Z,78.40
2019-01-24T06:57:27.981Z,78.20
2019-01-24T06:59:55.982Z,77.90
2019-01-24T07:02:24.017Z,77.80
2019-01-24T07:04:52.206Z,77.80
2019-01-24T07:07:20.445Z,77.90
2019-01-24T07:09:48.541Z,78.10
2019-01-24T07:12:16.539Z,77.80
2019-01-24T07:14:44.740Z,78.00
2019-01-24T07:17:13.308Z,78.00
2019-01-24T07:19:41.645Z,78.00
2019-01-24T07:22:09.326Z,78.40
2019-01-24T07:24:41.921Z,77.40
2019-01-24T07:27:09.647Z,77.60
2019-01-24T07:29:37.957Z,78.20
2019-01-24T07:32:05.831Z,78.60
2019-01-24T07:34:33.872Z,78.60
2019-01-24T07:37:01.944Z,78.70
2019-01-24T07:39:29.974Z,77.80
2019-01-24T07:41:57.673Z,77.20
2019-01-24T07:44:25.563Z,77.30
2019-01-24T07:46:53.767Z,77.80
2019-01-24T07:49:21.904Z,78.60
2019-01-24T07:51:49.662Z,78.30
2019-01-24T07:54:20.697Z,78.00
2019-01-24T07:56:49.650Z,77.80
2019-01-24T07:59:18.710Z,77.90
2019-01-24T08:01:46.652Z,78.30
2019-01-24T08:04:14.708Z,79.10
2019-01-24T08:06:42.487Z,78.10
2019-01-24T08:09:10.315Z,77.80
2019-01-24T08:11:37.904Z,77.60
2019-01-24T08:14:05.994Z,77.50
2019-01-24T08:16:34.819Z,77.60
2019-01-24T08:19:02.531Z,77.80
2019-01-24T08:21:30.352Z,77.70
2019-01-24T08:23:58.529Z,77.90
2019-01-24T08:26:26.327Z,78.30
2019-01-24T08:28:54.302Z,78.20
2019-01-24T08:31:22.570Z,78.30
2019-01-24T08:33:50.373Z,78.50
2019-01-24T08:36:18.310Z,78.60
2019-01-24T08:38:45.957Z,79.00
2019-01-24T08:41:13.536Z,78.80
2019-01-24T08:43:41.610Z,78.30
2019-01-24T08:46:09.560Z,77.90
2019-01-24T08:48:37.347Z,77.80
2019-01-24T08:51:05.198Z,78.00
2019-01-24T08:53:33.062Z,78.10
2019-01-24T08:56:01.090Z,77.90
2019-01-24T08:58:28.609Z,78.40
2019-01-24T09:00:57.091Z,78.60
2019-01-24T09:03:28.000Z,78.60
2019-01-24T09:05:56.148Z,78.50
2019-01-24T09:08:23.805Z,79.20
2019-01-24T09:10:51.853Z,79.00
2019-01-24T09:13:19.384Z,79.00
2019-01-24T09:15:47.341Z,78.90
2019-01-24T09:18:15.211Z,78.60
2019-01-24T09:20:42.966Z,78.30
2019-01-24T09:23:10.664Z,78.90
2019-01-24T09:25:39.609Z,78.80
2019-01-24T09:28:07.396Z,79.00
2019-01-24T09:30:36.587Z,79.20
2019-01-24T09:33:04.354Z,80.10
2019-01-24T09:35:32.082Z,79.60
2019-01-24T09:38:00.481Z,79.50
2019-01-24T09:40:28.360Z,79.40
2019-01-24T09:42:56.438Z,79.30
2019-01-24T09:45:26.101Z,79.20
2019-01-24T09:47:55.560Z,78.70
2019-01-24T09:50:23.717Z,78.40
2019-01-24T09:52:51.106Z,78.50
2019-01-24T09:55:19.238Z,78.60
2019-01-24T09:57:47.319Z,78.50
2019-01-24T10:00:17.767Z,78.40
2019-01-24T10:02:45.656Z,78.30
2019-01-24T10:05:13.888Z,78.80
2019-01-24T10:07:41.513Z,78.60
2019-01-24T10:10:12.311Z,78.60
2019-01-24T10:12:39.970Z,78.30
2019-01-24T10:15:09.284Z,78.50
2019-01-24T10:17:37.223Z,78.30
2019-01-24T10:20:07.974Z,77.80
2019-01-24T10:22:35.814Z,78.00
2019-01-24T10:25:05.882Z,78.60
2019-01-24T10:27:34.028Z,77.60
2019-01-24T10:30:02.389Z,77.40
2019-01-24T10:32:30.353Z,77.30
2019-01-24T10:34:57.947Z,76.80
2019-01-24T10:37:25.937Z,77.00
2019-01-24T10:39:53.965Z,77.20
2019-01-24T10:42:22.016Z,76.70
2019-01-24T10:44:50.114Z,76.70
2019-01-24T10:47:17.910Z,76.70
2019-01-24T10:49:45.588Z,76.70
2019-01-24T10:52:13.601Z,76.80
2019-01-24T10:54:41.454Z,77.00
2019-01-24T10:57:09.345Z,76.90
2019-01-24T10:59:36.783Z,77.10
2019-01-24T11:02:05.061Z,76.90
2019-01-24T11:04:33.779Z,76.40
2019-01-24T11:07:01.585Z,76.10
2019-01-24T11:09:29.738Z,76.30
2019-01-24T11:11:57.847Z,76.50
2019-01-24T11:14:25.619Z,76.70
2019-01-24T11:16:53.812Z,76.70
2019-01-24T11:19:21.868Z,76.60
2019-01-24T11:21:49.946Z,76.30
2019-01-24T11:24:17.699Z,75.80
2019-01-24T11:26:45.473Z,76.30
2019-01-24T11:29:13.773Z,76.40
2019-01-24T11:31:41.892Z,76.50
2019-01-24T11:34:10.394Z,76.30
2019-01-24T11:36:38.018Z,76.50
2019-01-24T11:39:06.697Z,76.50
2019-01-24T11:41:34.468Z,76.20
2019-01-24T11:44:02.403Z,76.10
2019-01-24T11:46:30.336Z,76.40
2019-01-24T11:48:58.565Z,76.00
2019-01-24T11:51:29.771Z,76.60
2019-01-24T11:53:58.572Z,76.70
2019-01-24T11:56:26.201Z,76.60
2019-01-24T11:58:53.964Z,76.90
2019-01-24T12:01:21.520Z,76.90
2019-01-24T12:03:49.417Z,76.30
2019-01-24T12:06:17.494Z,75.90
2019-01-24T12:08:44.961Z,76.50
2019-01-24T12:11:12.742Z,76.60
2019-01-24T12:13:40.766Z,77.00
2019-01-24T12:16:08.436Z,76.90
2019-01-24T12:18:36.286Z,76.20
2019-01-24T12:21:03.852Z,76.10
2019-01-24T12:23:32.000Z,75.80
2019-01-24T12:25:59.900Z,75.70
2019-01-24T12:28:27.532Z,75.60
2019-01-24T12:30:55.741Z,75.10
2019-01-24T12:33:23.369Z,75.20
2019-01-24T12:35:51.278Z,75.50
2019-01-24T12:38:18.698Z,75.70
2019-01-24T12:40:46.673Z,75.40
2019-01-24T12:43:14.559Z,75.30
2019-01-24T12:45:42.689Z,75.20
2019-01-24T12:48:10.366Z,75.50
2019-01-24T12:50:38.009Z,75.20
2019-01-24T12:53:06.716Z,75.00
2019-01-24T12:55:34.661Z,74.80
2019-01-24T12:58:02.345Z,75.20
2019-01-24T13:00:32.803Z,75.30
2019-01-24T13:03:00.613Z,75.60
2019-01-24T13:05:28.409Z,75.10
2019-01-24T13:07:56.105Z,74.90
2019-01-24T13:10:24.452Z,74.80
2019-01-24T13:12:52.356Z,75.20
2019-01-24T13:15:22.489Z,75.50
2019-01-24T13:17:51.134Z,75.40
2019-01-24T13:20:18.604Z,76.10
2019-01-24T13:22:49.527Z,76.20
2019-01-24T13:25:36.861Z,75.10
2019-01-24T13:28:05.822Z,75.00
2019-01-24T13:30:33.850Z,74.80
2019-01-24T13:33:02.044Z,74.80
2019-01-24T13:35:30.055Z,75.30
2019-01-24T13:37:58.755Z,75.50
2019-01-24T13:40:27.846Z,75.80
2019-01-24T13:42:56.418Z,76.20
2019-01-24T13:45:26.541Z,75.90
2019-01-24T13:47:54.641Z,75.80
2019-01-24T13:50:22.446Z,75.40
2019-01-24T13:52:50.187Z,75.20
2019-01-24T13:55:18.187Z,74.80
2019-01-24T13:57:45.844Z,75.10
2019-01-24T14:00:16.386Z,75.40
2019-01-24T14:02:44.158Z,75.10
2019-01-24T14:05:12.695Z,75.10
2019-01-24T14:07:40.207Z,75.20
2019-01-24T14:10:09.401Z,75.40
2019-01-24T14:12:37.301Z,75.70
2019-01-24T14:15:07.215Z,75.70
2019-01-24T14:17:35.434Z,75.90
2019-01-24T14:20:05.401Z,75.60
2019-01-24T14:22:33.456Z,75.50
2019-01-24T14:25:01.519Z,75.70
2019-01-24T14:27:30.208Z,76.40
2019-01-24T14:29:58.086Z,76.00
2019-01-24T14:32:25.644Z,75.90
2019-01-24T14:34:54.702Z,75.60
2019-01-24T14:37:22.736Z,75.90
2019-01-24T14:39:50.371Z,76.20
2019-01-24T14:42:17.868Z,76.00
2019-01-24T14:44:45.509Z,76.30
2019-01-24T14:47:13.859Z,76.50
2019-01-24T14:49:42.062Z,77.00
2019-01-24T14:52:10.018Z,76.70
2019-01-24T14:54:38.332Z,76.30
2019-01-24T14:57:06.098Z,76.60
2019-01-24T14:59:33.835Z,76.60
2019-01-24T15:02:01.528Z,76.60
2019-01-24T15:04:29.468Z,76.90
2019-01-24T15:06:57.467Z,77.10
2019-01-24T15:09:25.680Z,77.40
2019-01-24T15:11:53.251Z,77.30
2019-01-24T15:14:20.936Z,77.30
2019-01-24T15:16:49.444Z,77.50
2019-01-24T15:19:17.462Z,77.70
2019-01-24T15:21:45.035Z,77.70
2019-01-24T15:24:13.018Z,78.40
2019-01-24T15:26:40.866Z,77.70
2019-01-24T15:29:08.927Z,77.60
2019-01-24T15:31:37.227Z,77.60
2019-01-24T15:34:05.362Z,77.50
2019-01-24T15:36:33.150Z,77.90
2019-01-24T15:39:00.646Z,78.00
2019-01-24T15:41:28.691Z,78.10
2019-01-24T15:43:56.475Z,77.90
2019-01-24T15:46:24.675Z,77.90
2019-01-24T15:48:52.219Z,77.60
2019-01-24T15:51:20.446Z,77.40
2019-01-24T15:53:48.726Z,77.80
2019-01-24T15:56:16.402Z,77.00
2019-01-24T15:58:44.678Z,77.60
2019-01-24T16:01:12.920Z,77.60
2019-01-24T16:03:40.797Z,77.60
2019-01-24T16:06:08.569Z,77.80
2019-01-24T16:08:39.203Z,77.50
2019-01-24T16:11:06.934Z,77.40
2019-01-24T16:13:34.810Z,77.30
2019-01-24T16:16:02.619Z,77.50
2019-01-24T16:18:30.368Z,77.40
2019-01-24T16:20:59.370Z,77.30
2019-01-24T16:23:27.351Z,77.60
2019-01-24T16:25:55.359Z,77.80
2019-01-24T16:28:24.869Z,77.80
2019-01-24T16:30:52.831Z,77.80
2019-01-24T16:33:20.470Z,77.80
2019-01-24T16:35:48.135Z,78.20
2019-01-24T16:38:15.823Z,78.50
2019-01-24T16:40:43.339Z,78.80
2019-01-24T16:43:10.723Z,78.50
2019-01-24T16:45:41.664Z,78.60
2019-01-24T16:48:10.302Z,79.00
2019-01-24T16:50:38.362Z,78.80
2019-01-24T16:53:06.026Z,78.60
2019-01-24T16:55:33.976Z,78.40
2019-01-24T16:58:01.828Z,78.40
2019-01-24T17:00:52.491Z,78.50
2019-01-24T17:03:20.057Z,78.40
2019-01-24T17:05:48.617Z,78.70
2019-01-24T17:08:16.710Z,79.00
2019-01-24T17:10:44.477Z,79.60
2019-01-24T17:13:11.878Z,79.50
2019-01-24T17:15:42.190Z,79.50
2019-01-24T17:18:09.979Z,79.20
2019-01-24T17:20:37.577Z,79.40
2019-01-24T17:23:06.090Z,79.30
2019-01-24T17:25:33.516Z,79.40
2019-01-24T17:28:01.667Z,79.30
2019-01-24T17:30:29.628Z,79.40
2019-01-24T17:32:57.902Z,79.50
2019-01-24T17:35:25.761Z,79.20
2019-01-24T17:37:53.544Z,79.10
2019-01-24T17:40:23.262Z,79.10
2019-01-24T17:42:50.877Z,79.00
2019-01-24T17:45:18.434Z,79.30
2019-01-24T17:47:45.955Z,78.90
2019-01-24T17:50:13.866Z,79.00
2019-01-24T17:52:41.942Z,79.10
2019-01-24T17:55:12.288Z,79.00
2019-01-24T17:57:40.215Z,79.10
2019-01-24T18:00:11.605Z,79.30
2019-01-24T18:02:39.839Z,79.60
2019-01-24T18:05:08.124Z,79.40
2019-01-24T18:07:36.343Z,79.00
2019-01-24T18:10:13.892Z,79.10
2019-01-24T18:12:37.484Z,79.30
2019-01-24T18:15:08.052Z,80.20
2019-01-24T18:17:36.178Z,79.20
2019-01-24T18:20:06.439Z,79.30
2019-01-24T18:22:34.523Z,79.60
2019-01-24T18:25:02.401Z,80.30
2019-01-24T18:27:30.397Z,80.20
2019-01-24T18:29:58.335Z,80.20
2019-01-24T18:32:25.830Z,79.70
2019-01-24T18:34:53.213Z,80.00
2019-01-24T18:37:21.160Z,79.90
2019-01-24T18:39:50.261Z,80.10
2019-01-24T18:42:17.827Z,80.30
2019-01-24T18:44:45.382Z,80.10
2019-01-24T18:47:13.201Z,79.90
2019-01-24T18:49:40.799Z,79.60
2019-01-24T18:52:08.314Z,80.10
2019-01-24T18:54:36.104Z,79.80
2019-01-24T18:57:04.484Z,79.80
2019-01-24T18:59:32.018Z,79.50
2019-01-24T19:02:00.607Z,79.60
2019-01-24T19:04:28.335Z,79.40
2019-01-24T19:06:55.832Z,79.70
2019-01-24T19:09:23.524Z,79.50
2019-01-24T19:11:51.888Z,80.00
2019-01-24T19:14:19.362Z,79.80
2019-01-24T19:16:46.913Z,79.50
2019-01-24T19:19:14.687Z,79.60
2019-01-24T19:21:43.136Z,79.90
2019-01-24T19:24:10.680Z,79.50
2019-01-24T19:26:38.595Z,79.70
2019-01-24T19:29:06.185Z,79.80
2019-01-24T19:31:33.811Z,80.10
2019-01-24T19:34:01.502Z,80.00
2019-01-24T19:36:28.995Z,80.00
2019-01-24T19:38:56.884Z,80.00
2019-01-24T19:41:25.336Z,79.80
2019-01-24T19:43:53.535Z,80.10
2019-01-24T19:46:22.190Z,80.20
2019-01-24T19:48:49.783Z,79.90
2019-01-24T19:51:17.863Z,80.70
2019-01-24T19:53:46.050Z,80.20
2019-01-24T19:56:14.008Z,81.20
2019-01-24T19:58:41.871Z,80.60
2019-01-24T20:01:09.755Z,80.80
2019-01-24T20:03:37.478Z,80.90
2019-01-24T20:06:04.953Z,80.60
2019-01-24T20:08:32.536Z,80.50
2019-01-24T20:11:00.800Z,80.40
2019-01-24T20:13:28.536Z,80.50
2019-01-24T20:15:56.721Z,80.60
2019-01-24T20:18:24.298Z,80.70
2019-01-24T20:20:52.360Z,80.50
2019-01-24T20:23:20.188Z,80.70
2019-01-24T20:25:49.596Z,80.70
2019-01-24T20:28:17.755Z,80.70
2019-01-24T20:30:45.974Z,80.70
2019-01-24T20:33:13.568Z,80.50
2019-01-24T20:35:47.279Z,80.70
2019-01-24T20:38:14.858Z,80.60
2019-01-24T20:40:42.914Z,80.70
2019-01-24T20:43:11.258Z,80.70
2019-01-24T20:45:39.370Z,80.70
2019-01-24T20:48:07.319Z,80.60
2019-01-24T20:50:35.257Z,80.80
2019-01-24T20:53:03.989Z,80.80
2019-01-24T20:55:32.042Z,81.10
2019-01-24T20:57:59.634Z,81.00
2019-01-24T21:00:27.756Z,80.70
2019-01-24T21:02:55.742Z,80.60
2019-01-24T21:05:23.585Z,80.60
2019-01-24T21:07:51.700Z,80.50
2019-01-24T21:10:21.383Z,80.50
2019-01-24T21:12:49.001Z,80.60
2019-01-24T21:15:17.014Z,80.90
2019-01-24T21:17:45.012Z,80.90
2019-01-24T21:20:15.255Z,80.90
2019-01-24T21:22:42.881Z,80.90
2019-01-24T21:25:11.299Z,80.90
2019-01-24T21:27:39.253Z,80.70
2019-01-24T21:30:14.761Z,80.80
2019-01-24T21:32:42.918Z,81.00
2019-01-24T21:35:10.592Z,81.00
2019-01-24T21:37:38.620Z,81.10
2019-01-24T21:40:08.543Z,81.00
2019-01-24T21:42:36.148Z,81.00
2019-01-24T21:45:05.480Z,81.00
2019-01-24T21:47:33.209Z,81.00
2019-01-24T21:50:00.941Z,81.30
2019-01-24T21:52:28.719Z,81.40
2019-01-24T21:54:56.722Z,81.30
2019-01-24T21:57:24.548Z,81.30
2019-01-24T21:59:52.252Z,81.40
2019-01-24T22:02:19.977Z,81.40
2019-01-24T22:04:47.852Z,81.70
2019-01-24T22:07:15.422Z,81.60
2019-01-24T22:09:43.390Z,81.80
2019-01-24T22:12:11.355Z,81.80
2019-01-24T22:14:39.205Z,81.50
2019-01-24T22:17:06.754Z,81.40
2019-01-24T22:19:34.383Z,81.30
2019-01-24T22:22:02.063Z,81.40
2019-01-24T22:24:29.750Z,81.60
2019-01-24T22:26:57.924Z,81.50
2019-01-24T22:29:25.906Z,81.60
2019-01-24T22:31:53.760Z,81.60
2019-01-24T22:34:21.861Z,81.60
2019-01-24T22:36:50.112Z,81.70
2019-01-24T22:39:17.635Z,81.80
2019-01-24T22:41:45.267Z,81.80
2019-01-24T22:44:12.892Z,81.80
2019-01-24T22:46:40.668Z,82.30
2019-01-24T22:49:08.518Z,81.80
2019-01-24T22:51:35.911Z,81.70
2019-01-24T22:54:03.994Z,81.80
2019-01-24T22:56:35.513Z,81.70
2019-01-24T22:59:01.247Z,81.50
2019-01-24T23:02:07.184Z,81.50
2019-01-24T23:04:35.040Z,81.50
2019-01-24T23:07:02.638Z,81.20
2019-01-24T23:09:30.489Z,81.70
2019-01-24T23:11:58.334Z,80.80
2019-01-24T23:14:26.245Z,81.10
2019-01-24T23:16:54.267Z,81.00
2019-01-24T23:19:22.072Z,81.10
2019-01-24T23:21:49.802Z,81.10
2019-01-24T23:24:17.970Z,80.90
2019-01-24T23:26:45.954Z,80.80
2019-01-24T23:29:13.848Z,81.00
2019-01-24T23:31:41.569Z,80.90
2019-01-24T23:34:09.335Z,81.00
2019-01-24T23:36:36.909Z,81.00
2019-01-24T23:39:08.172Z,81.00
2019-01-24T23:41:35.825Z,80.90
2019-01-24T23:44:03.940Z,81.00
2019-01-24T23:46:31.584Z,80.90
2019-01-24T23:48:59.401Z,80.80
2019-01-24T23:51:27.820Z,81.50
2019-01-24T23:53:55.339Z,80.70
2019-01-24T23:56:23.212Z,80.90
2019-01-24T23:58:50.761Z,81.00
